sensor_id;sensor_type;location;lat;lon;timestamp;pressure;altitude;pressure_sealevel;temperature;humidity
48527;BME280;34317;51.660;5.824;2023-05-14T00:02:17;101831.94;;;19.48;45.28
48527;BME280;34317;51.660;5.824;2023-05-14T00:04:44;101828.69;;;19.43;45.44
48527;BME280;34317;51.660;5.824;2023-05-14T00:07:11;101830.59;;;19.41;45.45
48527;BME280;34317;51.660;5.824;2023-05-14T00:09:38;101831.56;;;19.40;45.47
48527;BME280;34317;51.660;5.824;2023-05-14T00:12:05;101826.41;;;19.37;45.42
48527;BME280;34317;51.660;5.824;2023-05-14T00:14:33;101831.03;;;19.35;45.54
48527;BME280;34317;51.660;5.824;2023-05-14T00:17:00;101835.72;;;19.31;45.67
48527;BME280;34317;51.660;5.824;2023-05-14T00:19:27;101835.06;;;19.28;45.72
48527;BME280;34317;51.660;5.824;2023-05-14T00:21:54;101830.97;;;19.22;45.78
48527;BME280;34317;51.660;5.824;2023-05-14T00:24:21;101833.94;;;19.17;45.86
48527;BME280;34317;51.660;5.824;2023-05-14T00:26:48;101827.94;;;19.14;45.83
48527;BME280;34317;51.660;5.824;2023-05-14T00:29:15;101828.22;;;19.09;45.92
48527;BME280;34317;51.660;5.824;2023-05-14T00:31:42;101824.00;;;19.05;45.86
48527;BME280;34317;51.660;5.824;2023-05-14T00:34:10;101824.19;;;19.02;46.25
48527;BME280;34317;51.660;5.824;2023-05-14T00:36:37;101829.78;;;18.99;46.34
48527;BME280;34317;51.660;5.824;2023-05-14T00:39:04;101826.53;;;18.94;46.26
48527;BME280;34317;51.660;5.824;2023-05-14T00:41:31;101817.91;;;18.89;46.34
48527;BME280;34317;51.660;5.824;2023-05-14T00:43:58;101820.69;;;18.87;46.38
48527;BME280;34317;51.660;5.824;2023-05-14T00:46:26;101814.66;;;18.83;46.37
48527;BME280;34317;51.660;5.824;2023-05-14T00:48:53;101825.59;;;18.80;46.62
48527;BME280;34317;51.660;5.824;2023-05-14T00:51:21;101820.59;;;18.74;46.75
48527;BME280;34317;51.660;5.824;2023-05-14T00:53:49;101812.16;;;18.66;46.69
48527;BME280;34317;51.660;5.824;2023-05-14T00:56:16;101802.00;;;18.57;46.92
48527;BME280;34317;51.660;5.824;2023-05-14T00:58:44;101804.16;;;18.52;47.04
48527;BME280;34317;51.660;5.824;2023-05-14T01:01:11;101801.81;;;18.45;47.38
48527;BME280;34317;51.660;5.824;2023-05-14T01:03:41;101806.63;;;18.40;47.39
48527;BME280;34317;51.660;5.824;2023-05-14T01:06:14;101809.59;;;18.36;47.66
48527;BME280;34317;51.660;5.824;2023-05-14T01:14:39;101811.63;;;18.18;47.68
48527;BME280;34317;51.660;5.824;2023-05-14T01:17:10;101813.72;;;18.13;47.80
48527;BME280;34317;51.660;5.824;2023-05-14T01:19:41;101807.75;;;18.07;47.77
48527;BME280;34317;51.660;5.824;2023-05-14T01:22:10;101806.22;;;18.03;47.91
48527;BME280;34317;51.660;5.824;2023-05-14T01:24:37;101803.94;;;17.97;47.98
48527;BME280;34317;51.660;5.824;2023-05-14T01:27:24;101815.00;;;17.91;48.13
48527;BME280;34317;51.660;5.824;2023-05-14T01:32:54;101808.63;;;17.78;48.29
48527;BME280;34317;51.660;5.824;2023-05-14T01:35:26;101796.38;;;17.74;48.64
48527;BME280;34317;51.660;5.824;2023-05-14T01:37:59;101798.28;;;17.71;48.51
48527;BME280;34317;51.660;5.824;2023-05-14T01:40:27;101798.28;;;17.71;48.72
48527;BME280;34317;51.660;5.824;2023-05-14T01:42:55;101800.38;;;17.66;48.79
48527;BME280;34317;51.660;5.824;2023-05-14T01:45:23;101797.13;;;17.61;48.79
48527;BME280;34317;51.660;5.824;2023-05-14T01:47:50;101796.44;;;17.58;48.86
48527;BME280;34317;51.660;5.824;2023-05-14T01:50:17;101799.28;;;17.55;48.99
48527;BME280;34317;51.660;5.824;2023-05-14T01:52:45;101801.09;;;17.54;49.03
48527;BME280;34317;51.660;5.824;2023-05-14T01:55:13;101803.03;;;17.52;49.01
48527;BME280;34317;51.660;5.824;2023-05-14T01:57:41;101795.94;;;17.51;49.32
48527;BME280;34317;51.660;5.824;2023-05-14T02:00:08;101797.84;;;17.49;49.23
48527;BME280;34317;51.660;5.824;2023-05-14T02:02:41;101796.13;;;17.48;49.50
48527;BME280;34317;51.660;5.824;2023-05-14T02:05:11;101789.03;;;17.47;49.40
48527;BME280;34317;51.660;5.824;2023-05-14T02:07:39;101781.94;;;17.46;49.46
48527;BME280;34317;51.660;5.824;2023-05-14T02:10:08;101789.03;;;17.47;49.44
48527;BME280;34317;51.660;5.824;2023-05-14T02:12:35;101785.59;;;17.45;49.88
48527;BME280;34317;51.660;5.824;2023-05-14T02:15:03;101789.19;;;17.44;49.30
48527;BME280;34317;51.660;5.824;2023-05-14T02:17:31;101784.03;;;17.41;49.65
48527;BME280;34317;51.660;5.824;2023-05-14T02:19:58;101782.31;;;17.40;49.68
48527;BME280;34317;51.660;5.824;2023-05-14T02:22:25;101780.59;;;17.39;49.63
48527;BME280;34317;51.660;5.824;2023-05-14T02:24:52;101780.59;;;17.39;49.62
48527;BME280;34317;51.660;5.824;2023-05-14T02:27:19;101790.41;;;17.38;49.71
48527;BME280;34317;51.660;5.824;2023-05-14T02:29:47;101784.38;;;17.35;49.65
48527;BME280;34317;51.660;5.824;2023-05-14T02:32:14;101779.38;;;17.28;49.84
48527;BME280;34317;51.660;5.824;2023-05-14T02:34:41;101784.94;;;17.25;49.92
48527;BME280;34317;51.660;5.824;2023-05-14T02:37:08;101774.25;;;17.25;49.79
48527;BME280;34317;51.660;5.824;2023-05-14T02:39:36;101770.75;;;17.23;49.85
48527;BME280;34317;51.660;5.824;2023-05-14T02:42:03;101773.44;;;17.23;50.12
48527;BME280;34317;51.660;5.824;2023-05-14T02:44:30;101772.66;;;17.21;50.02
48527;BME280;34317;51.660;5.824;2023-05-14T02:46:58;101773.53;;;17.22;50.02
48527;BME280;34317;51.660;5.824;2023-05-14T02:49:25;101775.44;;;17.20;49.93
48527;BME280;34317;51.660;5.824;2023-05-14T02:51:52;101778.22;;;17.18;50.04
48527;BME280;34317;51.660;5.824;2023-05-14T02:54:22;101769.41;;;17.16;50.02
48527;BME280;34317;51.660;5.824;2023-05-14T02:56:49;101773.03;;;17.15;50.11
48527;BME280;34317;51.660;5.824;2023-05-14T02:59:16;101769.59;;;17.13;50.17
48527;BME280;34317;51.660;5.824;2023-05-14T03:01:44;101772.41;;;17.10;50.17
48527;BME280;34317;51.660;5.824;2023-05-14T03:04:12;101771.66;;;17.08;49.90
48527;BME280;34317;51.660;5.824;2023-05-14T03:06:39;101770.09;;;17.04;49.98
48527;BME280;34317;51.660;5.824;2023-05-14T03:09:06;101772.19;;;16.99;50.15
48527;BME280;34317;51.660;5.824;2023-05-14T03:11:33;101775.22;;;16.92;50.12
48527;BME280;34317;51.660;5.824;2023-05-14T03:14:00;101771.00;;;16.88;50.27
48527;BME280;34317;51.660;5.824;2023-05-14T03:16:28;101768.56;;;16.84;50.08
48527;BME280;34317;51.660;5.824;2023-05-14T03:18:55;101766.13;;;16.79;50.28
48527;BME280;34317;51.660;5.824;2023-05-14T03:21:22;101769.06;;;16.74;50.44
48527;BME280;34317;51.660;5.824;2023-05-14T03:23:51;101755.94;;;16.70;50.53
48527;BME280;34317;51.660;5.824;2023-05-14T03:26:18;101756.28;;;16.64;50.39
48527;BME280;34317;51.660;5.824;2023-05-14T03:28:45;101754.75;;;16.60;50.55
48527;BME280;34317;51.660;5.824;2023-05-14T03:31:12;101755.94;;;16.54;50.72
48527;BME280;34317;51.660;5.824;2023-05-14T03:33:39;101754.47;;;16.48;50.50
48527;BME280;34317;51.660;5.824;2023-05-14T03:36:07;101752.13;;;16.42;50.71
48527;BME280;34317;51.660;5.824;2023-05-14T03:38:34;101751.41;;;16.39;50.82
48527;BME280;34317;51.660;5.824;2023-05-14T03:41:01;101751.69;;;16.34;50.76
48527;BME280;34317;51.660;5.824;2023-05-14T03:43:28;101752.81;;;16.30;50.89
48527;BME280;34317;51.660;5.824;2023-05-14T03:45:55;101746.06;;;16.23;50.94
48527;BME280;34317;51.660;5.824;2023-05-14T03:48:23;101744.50;;;16.19;51.15
48527;BME280;34317;51.660;5.824;2023-05-14T03:50:50;101748.28;;;16.14;51.17
48527;BME280;34317;51.660;5.824;2023-05-14T03:53:17;101748.44;;;16.11;51.30
48527;BME280;34317;51.660;5.824;2023-05-14T03:55:45;101745.00;;;16.09;51.29
48527;BME280;34317;51.660;5.824;2023-05-14T03:58:12;101746.13;;;16.05;51.47
48527;BME280;34317;51.660;5.824;2023-05-14T04:00:40;101739.09;;;16.03;51.42
48527;BME280;34317;51.660;5.824;2023-05-14T04:03:09;101747.22;;;16.01;51.51
48527;BME280;34317;51.660;5.824;2023-05-14T04:05:37;101749.09;;;15.99;51.39
48527;BME280;34317;51.660;5.824;2023-05-14T04:08:04;101740.31;;;15.97;51.60
48527;BME280;34317;51.660;5.824;2023-05-14T04:10:31;101745.81;;;15.94;51.67
48527;BME280;34317;51.660;5.824;2023-05-14T04:12:59;101740.63;;;15.91;51.54
48527;BME280;34317;51.660;5.824;2023-05-14T04:15:31;101735.44;;;15.88;51.90
48527;BME280;34317;51.660;5.824;2023-05-14T04:17:58;101744.41;;;15.87;51.68
48527;BME280;34317;51.660;5.824;2023-05-14T04:20:26;101742.69;;;15.86;51.89
48527;BME280;34317;51.660;5.824;2023-05-14T04:22:54;101743.72;;;15.83;51.78
48527;BME280;34317;51.660;5.824;2023-05-14T04:25:21;101750.09;;;15.81;51.93
48527;BME280;34317;51.660;5.824;2023-05-14T04:27:49;101750.25;;;15.77;51.92
48527;BME280;34317;51.660;5.824;2023-05-14T04:30:16;101745.88;;;15.76;52.04
48527;BME280;34317;51.660;5.824;2023-05-14T04:32:43;101752.13;;;15.75;52.28
48527;BME280;34317;51.660;5.824;2023-05-14T04:35:11;101755.72;;;15.74;52.48
48527;BME280;34317;51.660;5.824;2023-05-14T04:37:38;101741.44;;;15.75;52.27
48527;BME280;34317;51.660;5.824;2023-05-14T04:40:07;101753.88;;;15.76;52.54
48527;BME280;34317;51.660;5.824;2023-05-14T04:42:37;101744.91;;;15.77;52.54
48527;BME280;34317;51.660;5.824;2023-05-14T04:45:05;101748.34;;;15.80;52.65
48527;BME280;34317;51.660;5.824;2023-05-14T04:47:33;101753.53;;;15.83;52.79
48527;BME280;34317;51.660;5.824;2023-05-14T04:50:00;101748.03;;;15.86;52.85
48527;BME280;34317;51.660;5.824;2023-05-14T04:52:27;101750.53;;;15.89;52.86
48527;BME280;34317;51.660;5.824;2023-05-14T04:54:54;101758.41;;;15.92;52.71
48527;BME280;34317;51.660;5.824;2023-05-14T04:57:22;101752.88;;;15.95;52.92
48527;BME280;34317;51.660;5.824;2023-05-14T04:59:49;101757.13;;;15.99;52.86
48527;BME280;34317;51.660;5.824;2023-05-14T05:02:17;101759.63;;;16.02;53.20
48527;BME280;34317;51.660;5.824;2023-05-14T05:04:44;101752.41;;;16.04;53.08
48527;BME280;34317;51.660;5.824;2023-05-14T05:07:13;101759.28;;;16.08;53.12
48527;BME280;34317;51.660;5.824;2023-05-14T05:09:41;101751.13;;;16.11;53.35
48527;BME280;34317;51.660;5.824;2023-05-14T05:12:09;101758.09;;;16.14;53.41
48527;BME280;34317;51.660;5.824;2023-05-14T05:14:36;101759.78;;;16.17;53.31
48527;BME280;34317;51.660;5.824;2023-05-14T05:17:03;101765.97;;;16.17;53.31
48527;BME280;34317;51.660;5.824;2023-05-14T05:19:30;101773.13;;;16.17;53.27
48527;BME280;34317;51.660;5.824;2023-05-14T05:22:09;101762.44;;;16.17;53.34
48527;BME280;34317;51.660;5.824;2023-05-14T05:24:36;101767.78;;;16.17;53.44
48527;BME280;34317;51.660;5.824;2023-05-14T05:27:03;101762.44;;;16.17;53.53
48527;BME280;34317;51.660;5.824;2023-05-14T05:29:31;101764.16;;;16.18;53.70
48527;BME280;34317;51.660;5.824;2023-05-14T05:31:58;101763.13;;;16.20;53.72
48527;BME280;34317;51.660;5.824;2023-05-14T05:34:26;101764.00;;;16.21;53.73
48527;BME280;34317;51.660;5.824;2023-05-14T05:36:53;101762.09;;;16.23;53.91
48527;BME280;34317;51.660;5.824;2023-05-14T05:39:20;101760.97;;;16.27;53.86
48527;BME280;34317;51.660;5.824;2023-05-14T05:41:47;101765.22;;;16.31;53.89
48527;BME280;34317;51.660;5.824;2023-05-14T05:44:14;101763.16;;;16.36;54.09
48527;BME280;34317;51.660;5.824;2023-05-14T05:46:41;101760.13;;;16.42;54.02
48527;BME280;34317;51.660;5.824;2023-05-14T05:49:08;101756.25;;;16.48;54.14
48527;BME280;34317;51.660;5.824;2023-05-14T05:51:36;101761.28;;;16.54;54.07
48527;BME280;34317;51.660;5.824;2023-05-14T05:54:03;101760.09;;;16.60;54.16
48527;BME280;34317;51.660;5.824;2023-05-14T05:56:30;101758.00;;;16.65;54.25
48527;BME280;34317;51.660;5.824;2023-05-14T05:58:57;101755.94;;;16.70;54.09
48527;BME280;34317;51.660;5.824;2023-05-14T06:01:24;101760.94;;;16.76;54.21
48527;BME280;34317;51.660;5.824;2023-05-14T06:03:52;101765.19;;;16.80;54.16
48527;BME280;34317;51.660;5.824;2023-05-14T06:06:19;101760.44;;;16.85;54.36
48527;BME280;34317;51.660;5.824;2023-05-14T06:08:47;101767.34;;;16.89;54.15
48527;BME280;34317;51.660;5.824;2023-05-14T06:11:14;101769.84;;;16.92;54.00
48527;BME280;34317;51.660;5.824;2023-05-14T06:13:42;101772.19;;;16.99;54.22
48527;BME280;34317;51.660;5.824;2023-05-14T06:16:09;101773.56;;;17.06;54.04
48527;BME280;34317;51.660;5.824;2023-05-14T06:18:36;101771.31;;;17.14;54.01
48527;BME280;34317;51.660;5.824;2023-05-14T06:21:04;101775.25;;;17.23;54.08
48527;BME280;34317;51.660;5.824;2023-05-14T06:23:32;101774.03;;;17.28;54.04
48527;BME280;34317;51.660;5.824;2023-05-14T06:25:59;101773.50;;;17.38;54.22
48527;BME280;34317;51.660;5.824;2023-05-14T06:28:26;101778.50;;;17.44;54.12
48527;BME280;34317;51.660;5.824;2023-05-14T06:30:54;101777.94;;;17.53;54.09
48527;BME280;34317;51.660;5.824;2023-05-14T06:33:22;101780.00;;;17.64;54.15
48527;BME280;34317;51.660;5.824;2023-05-14T06:35:59;101773.03;;;17.76;54.15
48527;BME280;34317;51.660;5.824;2023-05-14T06:38:26;101783.03;;;17.88;54.29
48527;BME280;34317;51.660;5.824;2023-05-14T06:40:54;101773.28;;;18.01;53.83
48527;BME280;34317;51.660;5.824;2023-05-14T06:43:21;101779.63;;;18.15;53.94
48527;BME280;34317;51.660;5.824;2023-05-14T06:45:49;101776.94;;;18.29;53.91
48527;BME280;34317;51.660;5.824;2023-05-14T06:48:17;101777.91;;;18.42;53.80
48527;BME280;34317;51.660;5.824;2023-05-14T06:50:46;101775.41;;;18.54;53.41
48527;BME280;34317;51.660;5.824;2023-05-14T06:53:13;101769.13;;;18.67;53.51
48527;BME280;34317;51.660;5.824;2023-05-14T06:55:41;101766.56;;;18.80;53.42
48527;BME280;34317;51.660;5.824;2023-05-14T06:58:08;101766.50;;;18.95;53.19
48527;BME280;34317;51.660;5.824;2023-05-14T07:00:35;101763.00;;;19.07;53.28
48527;BME280;34317;51.660;5.824;2023-05-14T07:03:03;101762.00;;;19.22;52.87
48527;BME280;34317;51.660;5.824;2023-05-14T07:05:30;101761.84;;;19.38;52.73
48527;BME280;34317;51.660;5.824;2023-05-14T07:07:57;101764.66;;;19.50;52.60
48527;BME280;34317;51.660;5.824;2023-05-14T07:10:24;101761.44;;;19.57;52.22
48527;BME280;34317;51.660;5.824;2023-05-14T07:12:52;101766.19;;;19.67;52.16
48527;BME280;34317;51.660;5.824;2023-05-14T07:15:19;101771.81;;;19.76;51.87
48527;BME280;34317;51.660;5.824;2023-05-14T07:17:47;101763.22;;;19.84;51.89
48527;BME280;34317;51.660;5.824;2023-05-14T07:20:14;101767.97;;;19.93;51.85
48527;BME280;34317;51.660;5.824;2023-05-14T07:22:41;101762.59;;;20.06;51.60
48527;BME280;34317;51.660;5.824;2023-05-14T07:25:08;101760.09;;;20.16;51.29
48527;BME280;34317;51.660;5.824;2023-05-14T07:27:36;101768.25;;;20.27;51.09
48527;BME280;34317;51.660;5.824;2023-05-14T07:30:03;101761.22;;;20.37;51.13
48527;BME280;34317;51.660;5.824;2023-05-14T07:32:30;101760.56;;;20.47;50.88
48527;BME280;34317;51.660;5.824;2023-05-14T07:34:58;101752.78;;;20.55;50.82
48527;BME280;34317;51.660;5.824;2023-05-14T07:37:25;101753.91;;;20.65;50.53
48527;BME280;34317;51.660;5.824;2023-05-14T07:39:52;101762.50;;;20.70;50.55
48527;BME280;34317;51.660;5.824;2023-05-14T07:42:19;101761.81;;;20.79;50.44
48527;BME280;34317;51.660;5.824;2023-05-14T07:45:02;101759.41;;;20.88;50.00
48527;BME280;34317;51.660;5.824;2023-05-14T07:47:29;101755.28;;;20.95;49.91
48527;BME280;34317;51.660;5.824;2023-05-14T07:49:56;101757.53;;;21.01;49.90
48527;BME280;34317;51.660;5.824;2023-05-14T07:52:24;101764.19;;;21.08;49.66
48527;BME280;34317;51.660;5.824;2023-05-14T07:54:51;101759.06;;;21.16;49.38
48527;BME280;34317;51.660;5.824;2023-05-14T07:57:19;101762.28;;;21.22;49.49
48527;BME280;34317;51.660;5.824;2023-05-14T07:59:47;101761.59;;;21.31;49.36
48527;BME280;34317;51.660;5.824;2023-05-14T08:02:14;101759.16;;;21.39;49.25
48527;BME280;34317;51.660;5.824;2023-05-14T08:04:43;101757.75;;;21.46;48.93
48527;BME280;34317;51.660;5.824;2023-05-14T08:07:10;101754.56;;;21.52;48.72
48527;BME280;34317;51.660;5.824;2023-05-14T08:09:37;101753.88;;;21.62;48.89
48527;BME280;34317;51.660;5.824;2023-05-14T08:12:04;101749.72;;;21.69;48.41
48527;BME280;34317;51.660;5.824;2023-05-14T08:14:32;101756.34;;;21.76;48.39
48527;BME280;34317;51.660;5.824;2023-05-14T08:16:59;101762.00;;;21.84;48.46
48527;BME280;34317;51.660;5.824;2023-05-14T08:19:26;101747.06;;;21.91;48.60
48527;BME280;34317;51.660;5.824;2023-05-14T08:21:54;101756.13;;;22.02;48.49
48527;BME280;34317;51.660;5.824;2023-05-14T08:24:21;101755.41;;;22.11;48.25
48527;BME280;34317;51.660;5.824;2023-05-14T08:26:48;101756.41;;;22.21;48.14
48527;BME280;34317;51.660;5.824;2023-05-14T08:29:15;101752.00;;;22.31;48.00
48527;BME280;34317;51.660;5.824;2023-05-14T08:31:42;101752.13;;;22.41;47.74
48527;BME280;34317;51.660;5.824;2023-05-14T08:34:10;101755.31;;;22.46;47.51
48527;BME280;34317;51.660;5.824;2023-05-14T08:36:40;101745.72;;;22.53;47.11
48527;BME280;34317;51.660;5.824;2023-05-14T08:39:07;101746.06;;;22.60;47.14
48527;BME280;34317;51.660;5.824;2023-05-14T08:41:35;101747.28;;;22.67;46.95
48527;BME280;34317;51.660;5.824;2023-05-14T08:44:19;101743.97;;;22.75;46.93
48527;BME280;34317;51.660;5.824;2023-05-14T08:46:52;101741.50;;;22.83;46.46
48527;BME280;34317;51.660;5.824;2023-05-14T08:51:47;101742.31;;;22.95;46.04
48527;BME280;34317;51.660;5.824;2023-05-14T08:54:15;101738.25;;;23.01;46.24
48527;BME280;34317;51.660;5.824;2023-05-14T08:56:44;101737.75;;;23.07;46.37
48527;BME280;34317;51.660;5.824;2023-05-14T08:59:12;101739.81;;;23.15;46.17
48527;BME280;34317;51.660;5.824;2023-05-14T09:01:45;101731.19;;;23.21;46.24
48527;BME280;34317;51.660;5.824;2023-05-14T09:04:21;101735.06;;;23.28;45.87
48527;BME280;34317;51.660;5.824;2023-05-14T09:06:51;101739.09;;;23.33;45.59
48527;BME280;34317;51.660;5.824;2023-05-14T09:09:19;101735.75;;;23.41;45.89
48527;BME280;34317;51.660;5.824;2023-05-14T09:11:50;101727.84;;;23.49;45.54
48527;BME280;34317;51.660;5.824;2023-05-14T09:14:18;101732.97;;;23.52;45.14
48527;BME280;34317;51.660;5.824;2023-05-14T09:16:47;101734.69;;;23.54;44.95
48527;BME280;34317;51.660;5.824;2023-05-14T09:19:15;101732.72;;;23.56;44.42
48527;BME280;34317;51.660;5.824;2023-05-14T09:21:46;101726.19;;;23.58;44.66
48527;BME280;34317;51.660;5.824;2023-05-14T09:24:22;101730.19;;;23.64;44.89
48527;BME280;34317;51.660;5.824;2023-05-14T09:26:51;101728.69;;;23.71;44.83
48527;BME280;34317;51.660;5.824;2023-05-14T09:29:19;101729.16;;;23.76;44.79
48527;BME280;34317;51.660;5.824;2023-05-14T09:31:49;101724.38;;;23.80;44.96
48527;BME280;34317;51.660;5.824;2023-05-14T09:34:25;101723.22;;;23.82;44.77
48527;BME280;34317;51.660;5.824;2023-05-14T09:37:00;101714.97;;;23.84;44.40
48527;BME280;34317;51.660;5.824;2023-05-14T09:39:28;101720.00;;;23.88;44.76
48527;BME280;34317;51.660;5.824;2023-05-14T09:41:56;101717.00;;;23.92;44.96
48527;BME280;34317;51.660;5.824;2023-05-14T09:44:23;101717.59;;;23.95;44.40
48527;BME280;34317;51.660;5.824;2023-05-14T09:46:51;101714.50;;;24.00;44.38
48527;BME280;34317;51.660;5.824;2023-05-14T09:49:20;101715.94;;;24.04;44.35
48527;BME280;34317;51.660;5.824;2023-05-14T09:51:48;101706.81;;;24.05;44.00
48527;BME280;34317;51.660;5.824;2023-05-14T09:54:15;101707.53;;;24.07;44.46
48527;BME280;34317;51.660;5.824;2023-05-14T09:56:43;101712.56;;;24.12;44.35
48527;BME280;34317;51.660;5.824;2023-05-14T09:59:10;101702.31;;;24.15;44.55
48527;BME280;34317;51.660;5.824;2023-05-14T10:01:39;101708.75;;;24.24;44.61
48527;BME280;34317;51.660;5.824;2023-05-14T10:04:08;101708.03;;;24.32;44.63
48527;BME280;34317;51.660;5.824;2023-05-14T10:06:37;101704.09;;;24.36;44.12
48527;BME280;34317;51.660;5.824;2023-05-14T10:09:15;101707.22;;;24.41;43.64
48527;BME280;34317;51.660;5.824;2023-05-14T10:11:46;101696.13;;;24.44;43.56
48527;BME280;34317;51.660;5.824;2023-05-14T10:14:40;101701.97;;;24.49;43.47
48527;BME280;34317;51.660;5.824;2023-05-14T10:17:09;101694.03;;;24.57;43.29
48527;BME280;34317;51.660;5.824;2023-05-14T10:19:49;101692.50;;;24.64;43.50
48527;BME280;34317;51.660;5.824;2023-05-14T10:22:22;101694.50;;;24.72;43.53
48527;BME280;34317;51.660;5.824;2023-05-14T10:24:50;101683.78;;;24.80;43.54
48527;BME280;34317;51.660;5.824;2023-05-14T10:27:19;101683.78;;;24.90;43.44
48527;BME280;34317;51.660;5.824;2023-05-14T10:29:54;101689.38;;;24.98;43.35
48527;BME280;34317;51.660;5.824;2023-05-14T10:32:23;101682.53;;;25.04;42.99
48527;BME280;34317;51.660;5.824;2023-05-14T10:34:52;101686.22;;;25.13;42.79
48527;BME280;34317;51.660;5.824;2023-05-14T10:37:21;101672.81;;;25.21;42.46
48527;BME280;34317;51.660;5.824;2023-05-14T10:39:58;101672.53;;;25.24;41.53
48527;BME280;34317;51.660;5.824;2023-05-14T10:42:33;101674.25;;;25.25;41.38
48527;BME280;34317;51.660;5.824;2023-05-14T10:45:06;101668.00;;;25.24;41.04
48527;BME280;34317;51.660;5.824;2023-05-14T10:47:38;101664.81;;;25.29;41.61
48527;BME280;34317;51.660;5.824;2023-05-14T10:50:08;101661.53;;;25.35;41.05
48527;BME280;34317;51.660;5.824;2023-05-14T10:52:36;101656.84;;;25.37;41.11
48527;BME280;34317;51.660;5.824;2023-05-14T10:55:05;101656.25;;;25.43;41.23
48527;BME280;34317;51.660;5.824;2023-05-14T10:57:38;101653.34;;;25.55;41.16
48527;BME280;34317;51.660;5.824;2023-05-14T11:00:06;101655.19;;;25.64;40.07
48527;BME280;34317;51.660;5.824;2023-05-14T11:02:39;101650.47;;;25.66;39.14
48527;BME280;34317;51.660;5.824;2023-05-14T11:05:09;101643.63;;;25.62;39.59
48527;BME280;34317;51.660;5.824;2023-05-14T11:07:45;101643.03;;;25.68;39.57
48527;BME280;34317;51.660;5.824;2023-05-14T11:10:15;101643.84;;;25.78;40.70
48527;BME280;34317;51.660;5.824;2023-05-14T11:12:47;101642.09;;;25.87;39.16
48527;BME280;34317;51.660;5.824;2023-05-14T11:15:16;101624.63;;;25.90;38.71
48527;BME280;34317;51.660;5.824;2023-05-14T11:17:44;101638.66;;;25.95;39.28
48527;BME280;34317;51.660;5.824;2023-05-14T11:20:13;101632.31;;;26.04;38.70
48527;BME280;34317;51.660;5.824;2023-05-14T11:22:41;101624.59;;;26.09;38.31
48527;BME280;34317;51.660;5.824;2023-05-14T11:25:10;101619.53;;;26.14;37.92
48527;BME280;34317;51.660;5.824;2023-05-14T11:27:42;101618.25;;;26.18;38.39
48527;BME280;34317;51.660;5.824;2023-05-14T11:30:18;101625.06;;;26.22;38.54
48527;BME280;34317;51.660;5.824;2023-05-14T11:32:48;101630.19;;;26.26;38.49
48527;BME280;34317;51.660;5.824;2023-05-14T11:35:16;101621.34;;;26.23;38.16
48527;BME280;34317;51.660;5.824;2023-05-14T11:37:49;101611.38;;;26.14;37.87
48527;BME280;34317;51.660;5.824;2023-05-14T11:40:17;101606.56;;;26.08;37.57
48527;BME280;34317;51.660;5.824;2023-05-14T11:42:44;101602.31;;;26.06;37.83
48527;BME280;34317;51.660;5.824;2023-05-14T11:45:12;101608.28;;;26.09;37.94
48527;BME280;34317;51.660;5.824;2023-05-14T11:47:40;101603.97;;;26.16;38.34
48527;BME280;34317;51.660;5.824;2023-05-14T11:50:08;101597.59;;;26.26;36.93
48527;BME280;34317;51.660;5.824;2023-05-14T11:52:40;101591.56;;;26.32;37.37
48527;BME280;34317;51.660;5.824;2023-05-14T11:55:11;101603.50;;;26.39;37.36
48527;BME280;34317;51.660;5.824;2023-05-14T11:57:39;101598.00;;;26.49;37.55
48527;BME280;34317;51.660;5.824;2023-05-14T12:00:09;101595.94;;;26.60;36.70
48527;BME280;34317;51.660;5.824;2023-05-14T12:02:40;101587.53;;;26.72;35.31
48527;BME280;34317;51.660;5.824;2023-05-14T12:05:07;101587.75;;;26.78;35.39
48527;BME280;34317;51.660;5.824;2023-05-14T12:07:38;101590.03;;;26.83;34.62
48527;BME280;34317;51.660;5.824;2023-05-14T12:10:06;101586.28;;;26.84;35.20
48527;BME280;34317;51.660;5.824;2023-05-14T12:12:34;101587.16;;;26.85;34.33
48527;BME280;34317;51.660;5.824;2023-05-14T12:15:10;101588.00;;;26.85;34.45
48527;BME280;34317;51.660;5.824;2023-05-14T12:17:38;101583.63;;;26.92;33.96
48527;BME280;34317;51.660;5.824;2023-05-14T12:20:09;101584.72;;;26.99;33.34
48527;BME280;34317;51.660;5.824;2023-05-14T12:22:37;101583.03;;;27.07;34.20
48527;BME280;34317;51.660;5.824;2023-05-14T12:25:10;101584.50;;;27.19;33.27
48527;BME280;34317;51.660;5.824;2023-05-14T12:27:38;101574.72;;;27.26;32.69
48527;BME280;34317;51.660;5.824;2023-05-14T12:30:06;101571.34;;;27.32;33.05
48527;BME280;34317;51.660;5.824;2023-05-14T12:32:37;101566.97;;;27.40;33.17
48527;BME280;34317;51.660;5.824;2023-05-14T12:35:07;101572.44;;;27.48;32.55
48527;BME280;34317;51.660;5.824;2023-05-14T12:37:35;101571.81;;;27.54;32.43
48527;BME280;34317;51.660;5.824;2023-05-14T12:40:03;101569.94;;;27.54;32.59
48527;BME280;34317;51.660;5.824;2023-05-14T12:42:34;101564.66;;;27.53;32.39
48527;BME280;34317;51.660;5.824;2023-05-14T12:45:02;101563.59;;;27.46;32.05
48527;BME280;34317;51.660;5.824;2023-05-14T12:47:33;101563.72;;;27.36;31.61
48527;BME280;34317;51.660;5.824;2023-05-14T12:50:01;101559.00;;;27.20;31.25
48527;BME280;34317;51.660;5.824;2023-05-14T12:52:28;101565.41;;;27.11;31.19
48527;BME280;34317;51.660;5.824;2023-05-14T12:55:08;101556.88;;;27.06;31.78
48527;BME280;34317;51.660;5.824;2023-05-14T12:57:36;101552.81;;;27.10;31.86
48527;BME280;34317;51.660;5.824;2023-05-14T13:00:06;101544.00;;;27.16;32.68
48527;BME280;34317;51.660;5.824;2023-05-14T13:02:34;101548.13;;;27.20;32.89
48527;BME280;34317;51.660;5.824;2023-05-14T13:05:10;101548.75;;;27.14;33.21
48527;BME280;34317;51.660;5.824;2023-05-14T13:07:37;101548.41;;;27.09;33.82
48527;BME280;34317;51.660;5.824;2023-05-14T13:10:05;101546.47;;;27.01;33.71